createdAt,value
2023-04-15T00:00:27.151Z,10.50
2023-04-15T00:03:29.909Z,8.98
2023-04-15T00:06:32.334Z,10.05
2023-04-15T00:09:34.349Z,9.07
2023-04-15T00:12:36.660Z,9.02
2023-04-15T00:15:39.235Z,11.45
2023-04-15T00:18:41.628Z,8.15
2023-04-15T00:21:50.694Z,9.03
2023-04-15T00:24:58.934Z,8.13
2023-04-15T00:28:01.777Z,6.20
2023-04-15T00:31:04.545Z,7.33
2023-04-15T00:34:06.549Z,10.15
2023-04-15T00:37:10.181Z,6.70
2023-04-15T00:40:12.534Z,8.88
2023-04-15T00:43:14.540Z,6.90
2023-04-15T00:46:16.677Z,7.55
2023-04-15T00:49:19.428Z,8.43
2023-04-15T00:52:22.313Z,8.30
2023-04-15T00:55:24.412Z,9.27
2023-04-15T00:58:26.520Z,9.18
2023-04-15T01:01:28.843Z,9.47
2023-04-15T01:04:31.022Z,8.07
2023-04-15T01:07:33.377Z,9.10
2023-04-15T01:10:36.085Z,8.60
2023-04-15T01:13:38.467Z,9.30
2023-04-15T01:16:41.184Z,9.80
2023-04-15T01:19:43.444Z,7.50
2023-04-15T01:22:52.799Z,6.07
2023-04-15T01:25:57.563Z,6.55
2023-04-15T01:29:00.203Z,5.97
2023-04-15T01:32:02.934Z,5.97
2023-04-15T01:35:05.058Z,7.45
2023-04-15T01:38:08.544Z,7.05
2023-04-15T01:41:10.612Z,8.88
2023-04-15T01:44:12.784Z,7.32
2023-04-15T01:47:15.240Z,8.23
2023-04-15T01:50:17.668Z,7.45
2023-04-15T01:53:20.039Z,8.63
2023-04-15T01:56:22.036Z,10.45
2023-04-15T01:59:24.089Z,9.45
2023-04-15T02:02:26.536Z,9.43
2023-04-15T02:05:32.133Z,8.35
2023-04-15T02:08:34.796Z,9.88
2023-04-15T02:11:37.709Z,10.70
2023-04-15T02:14:40.109Z,9.20
2023-04-15T02:17:45.997Z,9.98
2023-04-15T02:20:51.400Z,10.18
2023-04-15T02:23:54.290Z,10.83
2023-04-15T02:26:56.342Z,15.18
2023-04-15T02:29:58.469Z,9.90
2023-04-15T02:33:00.981Z,10.10
2023-04-15T02:36:03.233Z,11.18
2023-04-15T02:39:05.348Z,9.85
2023-04-15T02:42:07.441Z,8.60
2023-04-15T02:45:10.220Z,11.88
2023-04-15T02:48:12.612Z,9.40
2023-04-15T02:51:15.547Z,8.73
2023-04-15T02:54:20.916Z,9.07
2023-04-15T02:57:22.928Z,8.82
2023-04-15T03:00:25.534Z,9.48
2023-04-15T03:03:28.844Z,9.70
2023-04-15T03:06:31.469Z,9.95
2023-04-15T03:09:33.516Z,8.70
2023-04-15T03:12:37.749Z,10.10
2023-04-15T03:15:40.024Z,9.63
2023-04-15T03:18:42.432Z,12.98
2023-04-15T03:21:44.576Z,10.80
2023-04-15T03:24:47.056Z,11.37
2023-04-15T03:27:49.152Z,9.95
2023-04-15T03:30:53.376Z,9.48
2023-04-15T03:33:55.758Z,11.57
2023-04-15T03:36:59.250Z,10.07
2023-04-15T03:40:02.423Z,10.45
2023-04-15T03:43:04.958Z,11.52
2023-04-15T03:46:07.405Z,13.52
2023-04-15T03:49:09.576Z,11.02
2023-04-15T03:52:11.646Z,9.57
2023-04-15T03:55:14.508Z,10.97
2023-04-15T03:58:16.927Z,10.68
2023-04-15T04:01:19.255Z,8.70
2023-04-15T04:04:21.387Z,10.53
2023-04-15T04:07:24.204Z,10.52
2023-04-15T04:10:27.122Z,11.77
2023-04-15T04:13:29.539Z,10.02
2023-04-15T04:16:31.574Z,10.60
2023-04-15T04:19:33.735Z,10.63
2023-04-15T04:22:40.036Z,9.25
2023-04-15T04:25:42.568Z,9.77
2023-04-15T04:28:44.654Z,9.45
2023-04-15T04:31:48.798Z,10.43
2023-04-15T04:34:51.434Z,12.23
2023-04-15T04:37:53.898Z,10.68
2023-04-15T04:40:55.998Z,12.43
2023-04-15T04:43:58.241Z,11.63
2023-04-15T04:47:00.703Z,13.90
2023-04-15T04:50:03.661Z,15.27
2023-04-15T04:53:06.136Z,16.83
2023-04-15T04:56:08.311Z,14.13
2023-04-15T04:59:10.500Z,16.25
2023-04-15T05:02:13.092Z,13.32
2023-04-15T05:05:15.588Z,13.70
2023-04-15T05:08:17.577Z,12.30
2023-04-15T05:11:19.999Z,11.10
2023-04-15T05:14:23.325Z,13.40
2023-04-15T05:17:25.707Z,12.13
2023-04-15T05:20:28.088Z,10.68
2023-04-15T05:23:30.142Z,12.05
2023-04-15T05:26:32.704Z,13.30
2023-04-15T05:29:35.193Z,11.35
2023-04-15T05:32:37.167Z,12.50
2023-04-15T05:35:39.222Z,15.67
2023-04-15T05:38:41.299Z,14.63
2023-04-15T05:41:43.774Z,12.13
2023-04-15T05:44:45.874Z,13.10
2023-04-15T05:47:47.927Z,15.63
2023-04-15T05:50:49.914Z,15.27
2023-04-15T05:53:52.009Z,13.23
2023-04-15T05:56:54.394Z,13.30
2023-04-15T05:59:57.935Z,10.93
2023-04-15T06:03:01.064Z,13.15
2023-04-15T06:06:04.919Z,10.70
2023-04-15T06:09:06.896Z,10.63
2023-04-15T06:12:12.345Z,8.75
2023-04-15T06:15:14.497Z,9.65
2023-04-15T06:18:16.538Z,12.48
2023-04-15T06:21:18.541Z,9.65
2023-04-15T06:24:20.929Z,10.60
2023-04-15T06:27:23.160Z,9.87
2023-04-15T06:30:25.370Z,7.57
2023-04-15T06:33:27.642Z,9.25
2023-04-15T06:36:30.076Z,7.90
2023-04-15T06:39:32.280Z,7.75
2023-04-15T06:42:34.553Z,7.05
2023-04-15T06:45:36.986Z,8.07
2023-04-15T06:48:39.425Z,7.90
2023-04-15T06:51:42.572Z,6.95
2023-04-15T06:54:44.665Z,5.97
2023-04-15T06:57:46.923Z,7.43
2023-04-15T07:00:49.505Z,7.75
2023-04-15T07:03:51.691Z,6.35
2023-04-15T07:06:54.530Z,6.00
2023-04-15T07:09:57.298Z,6.13
2023-04-15T07:12:59.291Z,7.65
2023-04-15T07:16:01.889Z,5.13
2023-04-15T07:19:04.335Z,5.93
2023-04-15T07:22:07.819Z,5.32
2023-04-15T07:25:09.930Z,5.38
2023-04-15T07:28:12.404Z,6.20
2023-04-15T07:31:15.287Z,5.60
2023-04-15T07:34:17.620Z,4.87
2023-04-15T07:37:20.141Z,5.18
2023-04-15T07:40:22.551Z,5.60
2023-04-15T07:43:24.600Z,6.40
2023-04-15T07:46:27.593Z,3.37
2023-04-15T07:49:29.626Z,4.55
2023-04-15T07:52:32.493Z,3.65
2023-04-15T07:55:34.507Z,3.15
2023-04-15T07:58:37.447Z,3.63
2023-04-15T08:01:39.744Z,4.18
2023-04-15T08:04:42.092Z,4.03
2023-04-15T08:07:44.796Z,2.42
2023-04-15T08:10:46.823Z,2.40
2023-04-15T08:13:49.292Z,1.77
2023-04-15T08:16:51.666Z,2.55
2023-04-15T08:19:54.252Z,2.70
2023-04-15T08:22:56.423Z,2.97
2023-04-15T08:25:58.926Z,3.13
2023-04-15T08:29:01.735Z,2.55
2023-04-15T08:32:04.112Z,2.47
2023-04-15T08:35:07.109Z,1.80
2023-04-15T08:38:09.190Z,2.50
2023-04-15T08:41:24.198Z,1.90
2023-04-15T08:44:26.248Z,2.45
2023-04-15T08:47:30.107Z,1.65
2023-04-15T08:50:32.556Z,2.95
2023-04-15T08:53:35.514Z,1.63
2023-04-15T08:56:39.163Z,2.23
2023-04-15T08:59:41.979Z,2.17
2023-04-15T09:02:44.642Z,3.08
2023-04-15T09:05:47.061Z,1.80
2023-04-15T09:08:50.541Z,1.87
2023-04-15T09:11:52.605Z,1.27
2023-04-15T09:14:54.938Z,1.95
2023-04-15T09:17:57.539Z,2.25
2023-04-15T09:21:16.069Z,1.55
2023-04-15T09:24:18.106Z,1.33
2023-04-15T09:27:20.581Z,1.85
2023-04-15T09:30:23.131Z,0.95
2023-04-15T09:33:26.306Z,2.33
2023-04-15T09:36:31.658Z,1.30
2023-04-15T09:39:47.436Z,2.50
2023-04-15T09:42:56.142Z,1.10
2023-04-15T09:45:58.642Z,4.65
2023-04-15T09:49:09.745Z,1.75
2023-04-15T09:52:14.141Z,0.90
2023-04-15T09:55:17.968Z,1.33
2023-04-15T09:58:23.661Z,2.35
2023-04-15T10:01:25.832Z,3.53
2023-04-15T10:04:28.919Z,1.10
2023-04-15T10:07:32.096Z,2.33
2023-04-15T10:10:34.534Z,0.90
2023-04-15T10:13:37.588Z,1.40
2023-04-15T10:16:39.857Z,1.20
2023-04-15T10:19:42.427Z,1.10
2023-04-15T10:22:44.789Z,0.85
2023-04-15T10:25:47.164Z,1.30
2023-04-15T10:28:49.233Z,1.13
2023-04-15T10:31:51.881Z,1.30
2023-04-15T10:34:54.747Z,1.10
2023-04-15T10:37:57.502Z,1.15
2023-04-15T10:41:15.453Z,1.43
2023-04-15T10:44:18.696Z,1.90
2023-04-15T10:47:21.745Z,2.75
2023-04-15T10:50:25.911Z,2.50
2023-04-15T10:53:31.461Z,3.10
2023-04-15T10:56:33.888Z,2.40
2023-04-15T10:59:36.905Z,3.85
2023-04-15T11:02:42.213Z,2.60
2023-04-15T11:05:51.853Z,2.60
2023-04-15T11:08:54.767Z,3.33
2023-04-15T11:12:09.966Z,4.00
2023-04-15T11:15:31.446Z,2.95
2023-04-15T11:18:34.030Z,5.35
2023-04-15T11:21:36.149Z,3.67
2023-04-15T11:24:46.970Z,3.38
2023-04-15T11:27:50.121Z,4.00
2023-04-15T11:30:52.068Z,4.55
2023-04-15T11:34:01.607Z,3.88
2023-04-15T11:37:04.423Z,4.47
2023-04-15T11:40:07.075Z,4.13
2023-04-15T11:43:09.594Z,3.77
2023-04-15T11:46:12.702Z,2.60
2023-04-15T11:49:31.555Z,2.80
2023-04-15T11:52:34.058Z,2.25
2023-04-15T11:55:47.228Z,2.65
2023-04-15T11:58:50.980Z,2.07
2023-04-15T12:01:54.159Z,2.47
2023-04-15T12:05:03.904Z,2.05
2023-04-15T12:08:06.514Z,2.55
2023-04-15T12:11:08.482Z,2.45
2023-04-15T12:14:10.818Z,3.40
2023-04-15T12:17:13.307Z,2.10
2023-04-15T12:20:16.909Z,2.20
2023-04-15T12:23:19.728Z,1.83
2023-04-15T12:26:35.841Z,3.25
2023-04-15T12:29:38.834Z,2.03
2023-04-15T12:32:43.406Z,2.17
2023-04-15T12:35:46.176Z,3.97
2023-04-15T12:38:48.565Z,1.70
2023-04-15T12:41:51.335Z,2.13
2023-04-15T12:44:53.571Z,1.30
2023-04-15T12:47:56.020Z,1.88
2023-04-15T12:50:58.077Z,1.25
2023-04-15T12:54:00.180Z,1.92
2023-04-15T12:57:06.012Z,1.00
2023-04-15T13:00:10.215Z,2.00
2023-04-15T13:03:12.402Z,1.50
2023-04-15T13:06:14.732Z,1.20
2023-04-15T13:09:17.186Z,1.30
2023-04-15T13:12:26.397Z,1.10
2023-04-15T13:15:28.886Z,1.27
2023-04-15T13:18:31.460Z,1.40
2023-04-15T13:21:35.947Z,1.10
2023-04-15T13:24:39.398Z,1.60
2023-04-15T13:27:41.865Z,1.52
2023-04-15T13:30:44.406Z,0.87
2023-04-15T13:33:46.980Z,0.90
2023-04-15T13:36:49.500Z,0.95
2023-04-15T13:39:51.885Z,1.05
2023-04-15T13:42:53.938Z,2.25
2023-04-15T13:45:56.360Z,1.20
2023-04-15T13:48:58.494Z,1.73
2023-04-15T13:52:00.702Z,2.70
2023-04-15T13:55:18.238Z,1.60
2023-04-15T13:58:22.839Z,2.00
2023-04-15T14:01:25.395Z,1.93
2023-04-15T14:04:27.676Z,2.95
2023-04-15T14:07:30.144Z,3.58
2023-04-15T14:10:32.644Z,2.92
2023-04-15T14:13:34.777Z,3.17
2023-04-15T14:16:37.169Z,3.33
2023-04-15T14:19:39.229Z,4.05
2023-04-15T14:22:42.775Z,3.40
2023-04-15T14:25:47.521Z,3.97
2023-04-15T14:28:57.695Z,4.30
2023-04-15T14:32:11.569Z,3.93
2023-04-15T14:35:15.110Z,4.20
2023-04-15T14:38:17.523Z,3.22
2023-04-15T14:41:19.991Z,1.92
2023-04-15T14:44:22.044Z,1.83
2023-04-15T14:47:24.593Z,2.47
2023-04-15T14:50:26.697Z,1.83
2023-04-15T14:53:28.666Z,2.42
2023-04-15T14:56:30.696Z,2.00
2023-04-15T14:59:33.208Z,2.95
2023-04-15T15:02:39.654Z,2.97
2023-04-15T15:05:42.922Z,2.22
2023-04-15T15:08:46.121Z,1.35
2023-04-15T15:11:48.131Z,1.55
2023-04-15T15:14:50.975Z,1.10
2023-04-15T15:17:53.622Z,0.83
2023-04-15T15:20:56.039Z,1.17
2023-04-15T15:23:59.737Z,2.67
2023-04-15T15:27:02.265Z,1.95
2023-04-15T15:30:04.493Z,1.90
2023-04-15T15:33:09.440Z,0.83
2023-04-15T15:36:11.455Z,0.98
2023-04-15T15:39:13.466Z,0.65
2023-04-15T15:42:15.671Z,4.72
2023-04-15T15:45:18.365Z,2.15
2023-04-15T15:48:20.531Z,1.40
2023-04-15T15:51:22.925Z,1.27
2023-04-15T15:54:24.908Z,1.83
2023-04-15T15:57:27.374Z,1.00
2023-04-15T16:00:29.462Z,1.10
2023-04-15T16:03:31.751Z,1.30
2023-04-15T16:06:34.989Z,1.35
2023-04-15T16:09:37.976Z,1.40
2023-04-15T16:12:41.481Z,0.95
2023-04-15T16:15:43.476Z,1.77
2023-04-15T16:18:45.795Z,1.70
2023-04-15T16:21:48.424Z,2.83
2023-04-15T16:24:50.828Z,2.67
2023-04-15T16:28:03.096Z,2.20
2023-04-15T16:31:10.990Z,4.20
2023-04-15T16:34:16.008Z,3.85
2023-04-15T16:37:18.465Z,2.55
2023-04-15T16:40:20.465Z,2.67
2023-04-15T16:43:22.421Z,3.20
2023-04-15T16:46:24.617Z,2.93
2023-04-15T16:49:45.564Z,2.90
2023-04-15T16:52:47.703Z,3.45
2023-04-15T16:55:50.082Z,2.88
2023-04-15T16:58:52.050Z,3.73
2023-04-15T17:01:54.473Z,4.87
2023-04-15T17:04:57.068Z,4.20
2023-04-15T17:07:59.387Z,4.43
2023-04-15T17:11:01.356Z,3.55
2023-04-15T17:14:03.406Z,6.00
2023-04-15T17:17:05.887Z,4.43
2023-04-15T17:20:08.110Z,4.53
2023-04-15T17:23:10.564Z,4.45
2023-04-15T17:26:12.935Z,3.78
2023-04-15T17:29:14.871Z,5.37
2023-04-15T17:32:17.202Z,3.60
2023-04-15T17:35:19.226Z,5.20
2023-04-15T17:38:21.349Z,3.58
2023-04-15T17:41:24.014Z,3.78
2023-04-15T17:44:26.354Z,3.57
2023-04-15T17:47:28.707Z,4.40
2023-04-15T17:50:30.814Z,5.20
2023-04-15T17:53:33.374Z,8.52
2023-04-15T17:56:35.431Z,12.97
2023-04-15T17:59:37.926Z,11.93
2023-04-15T18:02:40.361Z,13.00
2023-04-15T18:05:42.877Z,10.75
2023-04-15T18:08:45.492Z,9.57
2023-04-15T18:11:48.464Z,11.63
2023-04-15T18:14:50.529Z,9.80
2023-04-15T18:17:53.057Z,12.60
2023-04-15T18:20:55.373Z,11.85
2023-04-15T18:23:57.351Z,10.10
2023-04-15T18:26:59.506Z,11.40
2023-04-15T18:30:01.495Z,11.67
2023-04-15T18:33:03.786Z,9.70
2023-04-15T18:36:06.138Z,12.27
2023-04-15T18:39:08.491Z,14.38
2023-04-15T18:42:10.641Z,15.10
2023-04-15T18:45:13.089Z,15.23
2023-04-15T18:48:16.032Z,13.15
2023-04-15T18:51:18.384Z,14.30
2023-04-15T18:54:20.330Z,16.67
2023-04-15T18:57:23.487Z,18.25
2023-04-15T19:00:33.417Z,17.33
2023-04-15T19:03:35.506Z,15.73
2023-04-15T19:06:37.767Z,13.75
2023-04-15T19:09:41.161Z,15.73
2023-04-15T19:12:43.185Z,16.23
2023-04-15T19:15:45.190Z,16.27
2023-04-15T19:18:47.625Z,16.65
2023-04-15T19:21:50.374Z,17.10
2023-04-15T19:24:53.101Z,17.13
2023-04-15T19:27:55.109Z,20.27
2023-04-15T19:30:58.281Z,24.75
2023-04-15T19:34:00.793Z,28.15
2023-04-15T19:37:02.761Z,22.08
2023-04-15T19:40:05.368Z,21.60
2023-04-15T19:43:07.362Z,20.38
2023-04-15T19:46:09.898Z,22.45
2023-04-15T19:49:11.991Z,24.65
2023-04-15T19:52:14.002Z,35.30
2023-04-15T19:55:16.281Z,47.35
2023-04-15T19:58:18.354Z,49.10
2023-04-15T20:01:20.596Z,48.27
2023-04-15T20:04:22.977Z,58.28
2023-04-15T20:07:25.411Z,72.82
2023-04-15T20:10:27.641Z,70.60
2023-04-15T20:13:29.647Z,64.50
2023-04-15T20:16:32.022Z,63.42
2023-04-15T20:19:33.996Z,53.53
2023-04-15T20:22:36.227Z,54.60
2023-04-15T20:25:38.252Z,43.67
2023-04-15T20:28:40.236Z,37.58
2023-04-15T20:31:42.259Z,42.20
2023-04-15T20:34:44.327Z,40.43
2023-04-15T20:37:46.689Z,34.63
2023-04-15T20:40:49.189Z,40.92
2023-04-15T20:43:51.677Z,35.77
2023-04-15T20:46:53.672Z,35.65
2023-04-15T20:49:56.444Z,28.48
2023-04-15T20:52:58.467Z,26.98
2023-04-15T20:56:19.500Z,30.60
2023-04-15T20:59:21.487Z,33.60
2023-04-15T21:02:23.889Z,31.20
2023-04-15T21:05:26.468Z,29.77
2023-04-15T21:08:31.689Z,31.25
2023-04-15T21:11:53.274Z,28.48
2023-04-15T21:14:56.254Z,29.88
2023-04-15T21:17:58.311Z,33.87
2023-04-15T21:21:00.926Z,31.10
2023-04-15T21:24:03.478Z,32.58
2023-04-15T21:27:06.031Z,31.35
2023-04-15T21:30:08.237Z,32.80
2023-04-15T21:33:10.810Z,38.40
2023-04-15T21:36:13.349Z,45.67
2023-04-15T21:39:15.594Z,54.47
2023-04-15T21:42:17.564Z,49.65
2023-04-15T21:45:19.553Z,44.00
2023-04-15T21:48:21.982Z,40.70
2023-04-15T21:51:24.206Z,36.38
2023-04-15T21:54:31.128Z,38.97
2023-04-15T21:57:34.450Z,32.45
2023-04-15T22:00:36.804Z,33.50
2023-04-15T22:03:38.972Z,37.15
2023-04-15T22:06:41.291Z,34.42
2023-04-15T22:09:43.232Z,30.20
2023-04-15T22:12:45.396Z,34.35
2023-04-15T22:15:48.292Z,32.08
2023-04-15T22:18:50.891Z,33.05
2023-04-15T22:21:53.237Z,30.80
2023-04-15T22:24:55.580Z,27.88
2023-04-15T22:27:58.163Z,27.98
2023-04-15T22:31:00.176Z,32.33
2023-04-15T22:34:02.318Z,27.67
2023-04-15T22:37:04.353Z,31.02
2023-04-15T22:40:06.591Z,30.13
2023-04-15T22:43:08.734Z,32.35
2023-04-15T22:46:11.113Z,31.77
2023-04-15T22:49:13.085Z,28.70
2023-04-15T22:52:29.585Z,27.13
2023-04-15T22:55:32.355Z,25.30
2023-04-15T22:58:34.934Z,22.52
2023-04-15T23:01:38.303Z,21.97
2023-04-15T23:04:40.927Z,21.38
2023-04-15T23:07:43.021Z,23.83
2023-04-15T23:10:45.029Z,19.60
2023-04-15T23:13:47.515Z,15.27
2023-04-15T23:16:50.104Z,14.55
2023-04-15T23:19:52.209Z,18.85
2023-04-15T23:22:54.220Z,16.90
2023-04-15T23:25:56.331Z,21.13
2023-04-15T23:29:04.837Z,20.48
2023-04-15T23:32:06.791Z,14.77
2023-04-15T23:35:09.087Z,16.23
2023-04-15T23:38:11.131Z,14.80
2023-04-15T23:41:13.839Z,17.75
2023-04-15T23:44:16.165Z,18.47
2023-04-15T23:47:18.670Z,15.18
2023-04-15T23:50:21.044Z,16.20
2023-04-15T23:53:23.014Z,17.43
2023-04-15T23:56:25.038Z,15.10
2023-04-15T23:59:27.022Z,16.05
